Time;durP1;ratioP1;P1;durP2;ratioP2;P2;SDS_P1;SDS_P2;PMS_P1;PMS_P2;Temp;Humidity;BMP_temperature;BMP_pressure;BME280_temperature;BME280_humidity;BME280_pressure;Samples;Min_cycle;Max_cycle;Signal;HPM_P1;HPM_P2
2023/05/10 00:04:53;;;;;;;0.20;0.20;;;;;;;;;;10188218;28;20112;-90
2023/05/10 00:09:56;;;;;;;0.20;0.20;;;;;;;;;;10187729;28;20061;-94
2023/05/10 00:15:02;;;;;;;0.43;0.30;;;;;;;;;;10187703;28;20795;-90
2023/05/10 00:20:07;;;;;;;1.00;0.20;;;;;;;;;;10188141;28;20076;-92
2023/05/10 00:25:11;;;;;;;0.10;0.10;;;;;;;;;;10188377;28;20716;-92
2023/05/10 00:30:16;;;;;;;0.10;0.10;;;;;;;;;;10122941;28;20053;-91
2023/05/10 00:35:21;;;;;;;0.82;0.20;;;;;;;;;;10187766;28;20059;-90
2023/05/10 00:40:25;;;;;;;0.10;0.10;;;;;;;;;;10164050;28;20057;-91
2023/05/10 00:45:36;;;;;;;0.10;0.10;;;;;;;;;;10185521;28;20049;-93
2023/05/10 00:50:40;;;;;;;0.20;0.10;;;;;;;;;;10185257;28;20049;-91
2023/05/10 00:55:44;;;;;;;0.10;0.10;;;;;;;;;;10187034;28;20333;-90
2023/05/10 01:00:50;;;;;;;0.20;0.20;;;;;;;;;;10188139;28;20053;-92
2023/05/10 01:05:54;;;;;;;0.35;0.35;;;;;;;;;;10187803;28;20059;-90
2023/05/10 01:10:57;;;;;;;0.10;0.10;;;;;;;;;;10186233;28;20133;-89
2023/05/10 01:16:03;;;;;;;0.10;0.10;;;;;;;;;;10181035;28;20083;-91
2023/05/10 01:21:18;;;;;;;0.20;0.20;;;;;;;;;;10182079;28;20060;-91
2023/05/10 01:26:50;;;;;;;0.10;0.10;;;;;;;;;;10163802;28;20418;-93
2023/05/10 01:32:12;;;;;;;0.10;0.10;;;;;;;;;;10179204;28;20057;-90
2023/05/10 01:37:21;;;;;;;0.30;0.10;;;;;;;;;;10146723;28;20678;-89
2023/05/10 01:42:31;;;;;;;0.22;0.20;;;;;;;;;;10179095;28;20140;-92
2023/05/10 01:47:41;;;;;;;0.20;0.20;;;;;;;;;;10144895;28;20781;-91
2023/05/10 01:52:50;;;;;;;0.20;0.20;;;;;;;;;;10178519;28;20526;-90
2023/05/10 01:58:07;;;;;;;0.20;0.20;;;;;;;;;;10163076;28;20518;-89
2023/05/10 02:03:12;;;;;;;;;;;;;;;;;;10183515;28;20583;-89
2023/05/10 02:08:18;;;;;;;0.13;0.13;;;;;;;;;;10169288;28;20010;-92
2023/05/10 02:13:24;;;;;;;0.45;0.40;;;;;;;;;;10181003;28;20079;-88
2023/05/10 02:18:29;;;;;;;0.33;0.23;;;;;;;;;;10176770;28;20503;-89
2023/05/10 02:23:36;;;;;;;0.90;0.43;;;;;;;;;;10184470;28;20057;-93
2023/05/10 02:28:41;;;;;;;0.20;0.20;;;;;;;;;;10184473;28;20417;-91
2023/05/10 02:33:47;;;;;;;0.20;0.20;;;;;;;;;;10177843;28;20147;-89
2023/05/10 02:38:52;;;;;;;0.13;0.13;;;;;;;;;;10180809;28;20060;-89
2023/05/10 02:44:00;;;;;;;0.32;0.25;;;;;;;;;;10183024;28;20083;-89
2023/05/10 02:49:05;;;;;;;1.63;0.20;;;;;;;;;;10177356;28;20056;-89
2023/05/10 02:54:12;;;;;;;0.22;0.22;;;;;;;;;;10178503;28;20068;-90
2023/05/10 02:59:15;;;;;;;1.48;0.93;;;;;;;;;;10184464;28;20056;-91
2023/05/10 03:04:20;;;;;;;0.50;0.50;;;;;;;;;;10171175;28;20116;-90
2023/05/10 03:09:24;;;;;;;0.30;0.30;;;;;;;;;;10121346;28;20101;-93
2023/05/10 03:14:43;;;;;;;0.30;0.28;;;;;;;;;;10110087;28;20042;-90
2023/05/10 03:19:56;;;;;;;0.40;0.30;;;;;;;;;;10144804;28;20506;-91
2023/05/10 03:25:05;;;;;;;0.70;0.38;;;;;;;;;;10143352;28;20095;-89
2023/05/10 03:30:12;;;;;;;0.52;0.52;;;;;;;;;;10188288;28;20084;-93
2023/05/10 03:35:17;;;;;;;0.43;0.40;;;;;;;;;;10170956;28;20075;-89
2023/05/10 03:40:21;;;;;;;0.60;0.57;;;;;;;;;;10203245;28;20067;-89
2023/05/10 03:45:25;;;;;;;2.13;0.60;;;;;;;;;;10181137;28;20699;-92
2023/05/10 03:50:30;;;;;;;2.97;0.55;;;;;;;;;;10165808;28;20147;-90
2023/05/10 03:55:36;;;;;;;0.63;0.50;;;;;;;;;;10171869;28;20049;-89
2023/05/10 04:00:43;;;;;;;1.03;0.60;;;;;;;;;;10128988;28;20129;-91
2023/05/10 04:05:59;;;;;;;1.55;0.80;;;;;;;;;;10162142;28;20056;-90
2023/05/10 04:11:07;;;;;;;1.50;0.77;;;;;;;;;;10179718;28;20080;-88
2023/05/10 04:16:11;;;;;;;1.08;0.85;;;;;;;;;;10186508;28;20713;-89
2023/05/10 04:21:16;;;;;;;0.80;0.80;;;;;;;;;;10169336;28;20068;-88
2023/05/10 04:26:22;;;;;;;;;;;;;;;;;;10187972;28;20041;-89
2023/05/10 04:31:27;;;;;;;0.65;0.60;;;;;;;;;;10117955;28;20296;-89
2023/05/10 04:36:35;;;;;;;1.20;1.10;;;;;;;;;;10183143;28;20079;-89
2023/05/10 04:41:40;;;;;;;1.88;1.00;;;;;;;;;;10122273;28;20634;-88
2023/05/10 04:46:44;;;;;;;1.95;1.23;;;;;;;;;;10187454;28;20139;-89
2023/05/10 04:51:48;;;;;;;3.38;1.33;;;;;;;;;;10188775;28;20124;-87
2023/05/10 04:56:52;;;;;;;2.70;1.50;;;;;;;;;;10109519;28;20565;-89
2023/05/10 05:07:20;;;;;;;1.83;1.30;;;;;;;;;;10062587;28;20060;-82
2023/05/10 05:12:23;;;;;;;3.50;1.83;;;;;;;;;;10064142;28;20068;-82
2023/05/10 05:17:27;;;;;;;2.40;1.00;;;;;;;;;;10122905;29;20430;-83
2023/05/10 05:22:31;;;;;;;2.80;1.00;;;;;;;;;;10133475;29;20069;-83
2023/05/10 05:27:34;;;;;;;3.15;1.02;;;;;;;;;;10088407;28;20057;-84
2023/05/10 05:32:38;;;;;;;1.52;1.27;;;;;;;;;;10086570;28;20294;-84
2023/05/10 05:37:43;;;;;;;1.08;0.90;;;;;;;;;;10140362;28;20108;-83
2023/05/10 05:42:46;;;;;;;1.50;0.82;;;;;;;;;;10085103;28;20052;-83
2023/05/10 05:47:49;;;;;;;1.73;0.88;;;;;;;;;;10127828;28;20096;-83
2023/05/10 05:52:54;;;;;;;1.60;1.10;;;;;;;;;;10137784;28;20470;-82
2023/05/10 05:57:57;;;;;;;1.48;1.13;;;;;;;;;;10116981;29;20069;-83
2023/05/10 06:03:00;;;;;;;1.48;0.90;;;;;;;;;;10097836;28;20045;-85
2023/05/10 06:08:05;;;;;;;1.95;1.00;;;;;;;;;;10126520;29;20156;-84
2023/05/10 06:13:09;;;;;;;1.38;0.80;;;;;;;;;;10088046;28;20600;-84
2023/05/10 06:18:12;;;;;;;1.65;1.20;;;;;;;;;;10113971;29;20052;-83
2023/05/10 06:23:18;;;;;;;3.17;0.75;;;;;;;;;;10130357;28;20053;-82
2023/05/10 06:28:22;;;;;;;1.80;1.60;;;;;;;;;;10097479;28;20534;-82
2023/05/10 06:33:25;;;;;;;1.88;1.15;;;;;;;;;;10121133;28;20052;-84
2023/05/10 06:38:30;;;;;;;3.25;1.30;;;;;;;;;;10062445;29;20421;-83
2023/05/10 06:43:33;;;;;;;1.92;1.25;;;;;;;;;;10063666;29;20140;-82
2023/05/10 06:48:37;;;;;;;2.10;1.38;;;;;;;;;;10068675;28;20045;-83
2023/05/10 06:53:41;;;;;;;3.50;1.40;;;;;;;;;;10116402;28;20041;-83
2023/05/10 06:58:45;;;;;;;5.78;2.00;;;;;;;;;;10128852;29;20053;-83
2023/05/10 07:03:48;;;;;;;2.30;1.55;;;;;;;;;;10061817;29;20050;-84
2023/05/10 07:08:53;;;;;;;2.55;1.52;;;;;;;;;;10103942;29;20053;-83
2023/05/10 07:13:56;;;;;;;2.90;1.63;;;;;;;;;;10069545;29;20053;-83
2023/05/10 07:18:59;;;;;;;2.28;1.13;;;;;;;;;;10075093;28;20064;-82
2023/05/10 07:24:04;;;;;;;1.95;1.23;;;;;;;;;;10131412;29;20057;-83
2023/05/10 07:29:07;;;;;;;2.53;1.40;;;;;;;;;;10078709;28;20057;-83
2023/05/10 07:34:11;;;;;;;1.58;0.95;;;;;;;;;;10132881;28;20056;-83
2023/05/10 07:39:15;;;;;;;3.47;1.38;;;;;;;;;;10055850;28;20061;-83
2023/05/10 07:44:23;;;;;;;4.13;1.27;;;;;;;;;;10049161;28;20045;-83
2023/05/10 07:49:27;;;;;;;2.65;1.30;;;;;;;;;;10113474;28;20062;-83
2023/05/10 07:54:32;;;;;;;1.23;0.93;;;;;;;;;;10070763;28;20049;-85
2023/05/10 07:59:35;;;;;;;2.25;1.48;;;;;;;;;;10077216;28;20056;-84
2023/05/10 08:04:38;;;;;;;1.60;1.17;;;;;;;;;;10108842;28;20045;-82
2023/05/10 08:09:43;;;;;;;2.47;1.15;;;;;;;;;;10063748;28;20064;-84
2023/05/10 08:14:46;;;;;;;2.50;0.90;;;;;;;;;;10125288;29;20056;-84
2023/05/10 08:19:49;;;;;;;2.15;1.20;;;;;;;;;;10070720;28;20056;-84
2023/05/10 08:24:54;;;;;;;1.67;0.80;;;;;;;;;;10134669;28;20442;-83
2023/05/10 08:29:57;;;;;;;2.05;1.08;;;;;;;;;;10130784;29;20418;-84
2023/05/10 08:35:00;;;;;;;2.30;1.08;;;;;;;;;;10083423;28;20427;-84
2023/05/10 08:40:06;;;;;;;2.75;1.23;;;;;;;;;;10128450;29;20069;-84
2023/05/10 08:45:11;;;;;;;3.85;1.33;;;;;;;;;;10081890;29;20054;-84
2023/05/10 08:50:15;;;;;;;2.30;1.10;;;;;;;;;;10112753;29;20433;-84
2023/05/10 08:55:20;;;;;;;1.48;0.80;;;;;;;;;;10088547;28;20111;-84
2023/05/10 09:00:24;;;;;;;0.80;0.60;;;;;;;;;;10068660;28;20073;-84
2023/05/10 09:05:28;;;;;;;0.50;0.47;;;;;;;;;;10126721;28;20057;-84
2023/05/10 09:10:33;;;;;;;0.32;0.32;;;;;;;;;;10088908;28;20320;-84
2023/05/10 09:15:36;;;;;;;1.23;0.60;;;;;;;;;;10066845;28;20061;-83
2023/05/10 09:20:39;;;;;;;0.30;0.30;;;;;;;;;;10056650;29;20054;-83
2023/05/10 09:25:44;;;;;;;0.35;0.30;;;;;;;;;;10059721;29;20079;-84
2023/05/10 09:30:55;;;;;;;0.30;0.30;;;;;;;;;;10118978;29;20089;-84
2023/05/10 09:36:08;;;;;;;0.95;0.20;;;;;;;;;;10073765;28;20512;-84
2023/05/10 09:41:18;;;;;;;0.52;0.40;;;;;;;;;;10117756;29;20053;-84
2023/05/10 09:46:22;;;;;;;1.08;0.50;;;;;;;;;;10112339;29;20049;-84
2023/05/10 09:51:26;;;;;;;1.48;0.55;;;;;;;;;;10141759;28;20522;-85
2023/05/10 09:56:39;;;;;;;0.38;0.35;;;;;;;;;;10138259;28;20449;-85
2023/05/10 10:01:49;;;;;;;0.40;0.40;;;;;;;;;;10079685;29;20064;-84
2023/05/10 10:07:03;;;;;;;1.95;0.40;;;;;;;;;;10083125;29;20055;-83
2023/05/10 10:12:08;;;;;;;0.93;0.22;;;;;;;;;;10132256;28;20123;-85
2023/05/10 10:17:12;;;;;;;0.57;0.30;;;;;;;;;;10136992;28;20321;-83
2023/05/10 10:22:16;;;;;;;0.43;0.30;;;;;;;;;;10071524;29;20644;-84
2023/05/10 10:27:27;;;;;;;0.57;0.35;;;;;;;;;;10129478;28;20053;-84
2023/05/10 10:32:43;;;;;;;0.50;0.35;;;;;;;;;;10080442;29;20103;-84
2023/05/10 10:37:47;;;;;;;0.40;0.20;;;;;;;;;;10153780;28;20505;-84
2023/05/10 10:42:52;;;;;;;0.20;0.20;;;;;;;;;;10145664;28;20278;-84
2023/05/10 10:48:23;;;;;;;2.08;0.30;;;;;;;;;;10141491;28;20046;-84
2023/05/10 10:53:28;;;;;;;0.70;0.20;;;;;;;;;;10101516;28;20053;-83
2023/05/10 10:58:34;;;;;;;0.20;0.20;;;;;;;;;;10079006;29;20053;-84
2023/05/10 11:29:02;;;;;;;0.85;0.50;;;;;;;;;;10151685;28;20130;-89
2023/05/10 12:00:33;;;;;;;0.28;0.20;;;;;;;;;;9878611;29;20135;-88
2023/05/10 12:05:37;;;;;;;0.10;0.10;;;;;;;;;;10131943;28;20051;-91
2023/05/10 12:10:41;;;;;;;0.82;0.30;;;;;;;;;;10235727;28;20721;-90
2023/05/10 12:15:47;;;;;;;0.50;0.20;;;;;;;;;;10245608;28;20582;-88
2023/05/10 12:20:53;;;;;;;1.48;0.30;;;;;;;;;;10229121;28;20543;-89
2023/05/10 12:26:03;;;;;;;0.10;0.10;;;;;;;;;;10244304;28;20082;-89
2023/05/10 12:31:08;;;;;;;1.08;0.20;;;;;;;;;;10199975;28;20075;-91
2023/05/10 12:36:13;;;;;;;0.60;0.47;;;;;;;;;;10193592;28;20049;-88
2023/05/10 12:41:18;;;;;;;0.40;0.20;;;;;;;;;;10147851;28;20728;-88
2023/05/10 12:46:25;;;;;;;1.48;0.22;;;;;;;;;;10211348;28;20049;-89
2023/05/10 12:51:28;;;;;;;0.20;0.10;;;;;;;;;;10219155;28;20466;-88
2023/05/10 12:56:31;;;;;;;0.20;0.20;;;;;;;;;;10210198;28;20082;-87
2023/05/10 13:01:36;;;;;;;0.10;0.10;;;;;;;;;;10205673;28;20068;-88
2023/05/10 13:06:40;;;;;;;0.20;0.20;;;;;;;;;;10220162;28;20123;-87
2023/05/10 13:11:43;;;;;;;1.35;0.22;;;;;;;;;;10198117;28;20064;-89
2023/05/10 13:16:48;;;;;;;0.60;0.30;;;;;;;;;;10145743;28;20052;-87
2023/05/10 13:21:52;;;;;;;2.05;0.20;;;;;;;;;;10206869;28;20108;-88
2023/05/10 13:26:55;;;;;;;0.50;0.30;;;;;;;;;;10197464;28;20593;-87
2023/05/10 13:32:00;;;;;;;0.10;0.10;;;;;;;;;;10201487;28;20046;-88
2023/05/10 13:37:03;;;;;;;0.10;0.10;;;;;;;;;;10222720;28;20052;-87
2023/05/10 13:42:06;;;;;;;0.25;0.20;;;;;;;;;;10206309;28;20057;-88
2023/05/10 13:47:12;;;;;;;0.73;0.20;;;;;;;;;;10232805;28;20042;-87
2023/05/10 13:52:16;;;;;;;0.20;0.20;;;;;;;;;;10243946;28;20083;-89
2023/05/10 13:57:19;;;;;;;0.55;0.20;;;;;;;;;;10151872;28;20070;-86
2023/05/10 14:02:24;;;;;;;0.60;0.40;;;;;;;;;;10207023;28;20045;-87
2023/05/10 14:07:29;;;;;;;0.32;0.20;;;;;;;;;;10209248;28;20123;-88
2023/05/10 14:12:33;;;;;;;0.47;0.20;;;;;;;;;;10208650;28;20052;-89
2023/05/10 14:17:38;;;;;;;1.27;0.10;;;;;;;;;;10199631;28;20309;-87
2023/05/10 14:22:41;;;;;;;0.95;0.50;;;;;;;;;;10146050;28;20425;-87
2023/05/10 14:27:45;;;;;;;0.68;0.40;;;;;;;;;;10206209;28;20056;-87
2023/05/10 14:32:50;;;;;;;0.30;0.30;;;;;;;;;;10205634;28;20088;-90
2023/05/10 14:37:53;;;;;;;0.68;0.45;;;;;;;;;;10180488;28;20663;-88
2023/05/10 14:42:57;;;;;;;0.47;0.43;;;;;;;;;;10212640;28;20135;-86
2023/05/10 14:48:04;;;;;;;0.47;0.30;;;;;;;;;;10118951;28;20041;-86
2023/05/10 14:53:07;;;;;;;1.40;0.45;;;;;;;;;;10125480;28;20056;-84
2023/05/10 14:58:11;;;;;;;1.35;0.40;;;;;;;;;;10189330;28;20426;-85
2023/05/10 15:03:16;;;;;;;0.73;0.52;;;;;;;;;;10181478;28;20588;-84
2023/05/10 15:08:19;;;;;;;2.00;0.70;;;;;;;;;;10179258;28;20847;-86
2023/05/10 15:13:22;;;;;;;5.22;0.95;;;;;;;;;;10201337;28;20079;-87
2023/05/10 15:18:27;;;;;;;0.57;0.47;;;;;;;;;;10212290;28;20136;-85
2023/05/10 15:23:31;;;;;;;2.38;0.32;;;;;;;;;;10210793;28;20044;-85
2023/05/10 15:28:35;;;;;;;1.52;0.50;;;;;;;;;;10190087;28;20055;-85
2023/05/10 15:33:40;;;;;;;1.67;0.40;;;;;;;;;;10186134;28;20111;-85
2023/05/10 15:38:43;;;;;;;0.85;0.47;;;;;;;;;;10197065;28;20054;-85
2023/05/10 15:43:46;;;;;;;1.25;0.75;;;;;;;;;;10203206;28;20049;-85
2023/05/10 15:48:51;;;;;;;0.80;0.40;;;;;;;;;;10192953;28;20049;-85
2023/05/10 15:53:55;;;;;;;1.95;0.70;;;;;;;;;;10195220;28;20383;-85
2023/05/10 15:59:09;;;;;;;1.75;0.45;;;;;;;;;;10202806;28;20460;-86
2023/05/10 16:04:14;;;;;;;1.65;0.40;;;;;;;;;;10207102;28;20583;-85
2023/05/10 16:09:17;;;;;;;2.72;0.60;;;;;;;;;;10192035;28;20048;-85
2023/05/10 16:14:23;;;;;;;1.15;0.50;;;;;;;;;;10122597;28;20048;-86
2023/05/10 16:19:28;;;;;;;2.33;0.40;;;;;;;;;;10137408;28;20048;-85
2023/05/10 16:24:36;;;;;;;1.73;0.70;;;;;;;;;;10210027;28;20051;-86
2023/05/10 16:29:39;;;;;;;1.38;0.65;;;;;;;;;;10186029;28;20057;-85
2023/05/10 16:34:44;;;;;;;1.42;0.70;;;;;;;;;;10197598;28;20144;-86
2023/05/10 16:39:47;;;;;;;1.48;0.40;;;;;;;;;;10113615;28;20156;-85
2023/05/10 16:44:51;;;;;;;0.50;0.50;;;;;;;;;;10189061;28;20063;-86
2023/05/10 16:49:56;;;;;;;0.90;0.47;;;;;;;;;;10187298;28;20056;-85
2023/05/10 16:54:59;;;;;;;0.60;0.40;;;;;;;;;;10202516;28;20151;-86
2023/05/10 17:00:04;;;;;;;2.55;0.85;;;;;;;;;;10142959;28;20055;-85
2023/05/10 17:05:09;;;;;;;0.55;0.30;;;;;;;;;;10214015;28;20049;-85
2023/05/10 17:10:13;;;;;;;0.60;0.30;;;;;;;;;;10190692;28;20048;-85
2023/05/10 17:15:17;;;;;;;0.50;0.40;;;;;;;;;;10144492;28;20054;-85
2023/05/10 17:20:22;;;;;;;1.65;0.73;;;;;;;;;;10195844;28;20048;-85
2023/05/10 17:25:26;;;;;;;2.03;0.98;;;;;;;;;;10135288;28;20060;-86
2023/05/10 17:30:31;;;;;;;3.53;1.10;;;;;;;;;;10184935;28;20056;-85
2023/05/10 17:35:36;;;;;;;1.60;0.70;;;;;;;;;;10135930;28;20048;-85
2023/05/10 17:40:41;;;;;;;0.30;0.20;;;;;;;;;;10193025;28;20295;-85
2023/05/10 17:45:47;;;;;;;0.40;0.20;;;;;;;;;;10200093;28;20063;-85
2023/05/10 17:50:52;;;;;;;3.30;0.30;;;;;;;;;;10133316;28;20068;-86
2023/05/10 17:55:57;;;;;;;0.20;0.20;;;;;;;;;;10152434;28;20748;-86
2023/05/10 18:01:01;;;;;;;0.30;0.13;;;;;;;;;;10208064;28;20104;-85
2023/05/10 18:06:06;;;;;;;0.93;0.10;;;;;;;;;;10150640;28;20068;-86
2023/05/10 18:11:10;;;;;;;;;;;;;;;;;;10216374;28;20056;-85
2023/05/10 18:16:13;;;;;;;0.47;0.20;;;;;;;;;;10209161;28;19923;-85
2023/05/10 18:21:18;;;;;;;0.22;0.13;;;;;;;;;;10219584;28;20561;-85
2023/05/10 18:26:22;;;;;;;0.10;0.10;;;;;;;;;;10192978;28;20414;-85
2023/05/10 18:31:25;;;;;;;0.55;0.20;;;;;;;;;;10152368;28;20709;-85
2023/05/10 18:36:31;;;;;;;0.40;0.40;;;;;;;;;;10149359;28;20056;-85
2023/05/10 18:41:36;;;;;;;0.95;0.30;;;;;;;;;;10223699;28;20520;-85
2023/05/10 18:46:44;;;;;;;0.85;0.30;;;;;;;;;;10137589;28;20084;-86
2023/05/10 18:51:50;;;;;;;1.75;0.15;;;;;;;;;;10216275;28;20130;-86
2023/05/10 18:56:56;;;;;;;0.82;0.10;;;;;;;;;;10216177;28;20151;-86
2023/05/10 19:01:59;;;;;;;0.30;0.10;;;;;;;;;;10207739;28;20048;-85
2023/05/10 19:07:10;;;;;;;0.10;0.10;;;;;;;;;;10209006;28;20051;-86
2023/05/10 19:12:16;;;;;;;0.40;0.10;;;;;;;;;;10212531;28;20082;-85
2023/05/10 19:17:21;;;;;;;0.32;0.10;;;;;;;;;;10204428;28;20106;-86
2023/05/10 19:22:26;;;;;;;0.30;0.30;;;;;;;;;;10215073;28;20044;-85
2023/05/10 19:27:38;;;;;;;0.45;0.30;;;;;;;;;;10191512;28;20126;-85
2023/05/10 19:32:44;;;;;;;2.47;0.80;;;;;;;;;;10196375;28;20072;-85
2023/05/10 19:37:49;;;;;;;1.83;0.60;;;;;;;;;;10213726;28;20786;-84
2023/05/10 19:42:55;;;;;;;0.80;0.50;;;;;;;;;;10204098;28;20060;-84
2023/05/10 19:48:00;;;;;;;0.38;0.35;;;;;;;;;;10153692;28;20138;-85
2023/05/10 19:53:07;;;;;;;0.50;0.50;;;;;;;;;;10207915;28;20056;-88
2023/05/10 19:58:13;;;;;;;0.60;0.43;;;;;;;;;;10125696;28;20132;-88
2023/05/10 20:03:19;;;;;;;3.10;1.10;;;;;;;;;;10194620;28;20109;-88
2023/05/10 20:08:25;;;;;;;2.17;1.48;;;;;;;;;;10192395;28;20060;-86
2023/05/10 20:13:33;;;;;;;1.35;0.95;;;;;;;;;;10151436;28;20044;-86
2023/05/10 20:18:37;;;;;;;1.08;0.57;;;;;;;;;;10138568;28;20048;-86
2023/05/10 20:23:42;;;;;;;0.30;0.30;;;;;;;;;;10224658;28;20052;-87
2023/05/10 20:28:45;;;;;;;0.50;0.40;;;;;;;;;;10210257;28;20051;-87
2023/05/10 20:33:48;;;;;;;2.35;0.50;;;;;;;;;;10151116;28;20044;-89
2023/05/10 20:38:56;;;;;;;0.93;0.45;;;;;;;;;;10208859;28;20450;-87
2023/05/10 20:44:02;;;;;;;2.40;0.70;;;;;;;;;;10198287;28;20465;-89
2023/05/10 20:49:05;;;;;;;;;;;;;;;;;;10140978;28;20128;-90
2023/05/10 20:54:10;;;;;;;0.68;0.50;;;;;;;;;;10200554;28;20436;-87
2023/05/10 20:59:13;;;;;;;1.55;0.73;;;;;;;;;;10165576;28;20076;-87
2023/05/10 21:04:17;;;;;;;1.15;0.50;;;;;;;;;;10211100;28;20555;-87
2023/05/10 21:09:22;;;;;;;1.10;0.38;;;;;;;;;;10154743;28;20386;-87
2023/05/10 21:14:25;;;;;;;0.20;0.20;;;;;;;;;;10200729;28;20123;-88
2023/05/10 21:19:29;;;;;;;0.30;0.30;;;;;;;;;;10201441;28;20655;-87
2023/05/10 21:24:34;;;;;;;0.40;0.35;;;;;;;;;;10206627;28;20051;-87
2023/05/10 21:29:38;;;;;;;0.70;0.30;;;;;;;;;;10214164;28;20040;-86
2023/05/10 21:34:41;;;;;;;1.92;0.40;;;;;;;;;;10213940;28;20044;-89
2023/05/10 21:39:46;;;;;;;0.65;0.30;;;;;;;;;;10129141;28;20048;-92
2023/05/10 21:44:50;;;;;;;0.60;0.35;;;;;;;;;;10203100;28;20049;-88
2023/05/10 21:50:02;;;;;;;2.95;0.68;;;;;;;;;;10208927;28;20049;-88
2023/05/10 21:55:08;;;;;;;0.40;0.17;;;;;;;;;;10137015;28;20091;-92
2023/05/10 22:00:12;;;;;;;;;;;;;;;;;;10217586;28;20040;-89
2023/05/10 22:05:17;;;;;;;0.30;0.20;;;;;;;;;;10169306;28;19923;-88
2023/05/10 22:10:22;;;;;;;0.43;0.28;;;;;;;;;;10183597;28;20059;-90
2023/05/10 22:15:25;;;;;;;0.40;0.25;;;;;;;;;;10084313;28;20726;-93
2023/05/10 22:20:29;;;;;;;0.10;0.10;;;;;;;;;;10212761;28;20048;-90
2023/05/10 22:25:34;;;;;;;0.50;0.38;;;;;;;;;;10171602;28;20056;-91
2023/05/10 22:30:38;;;;;;;0.82;0.40;;;;;;;;;;10238638;28;20058;-92
2023/05/10 22:35:41;;;;;;;0.50;0.30;;;;;;;;;;10172982;28;20484;-90
2023/05/10 22:40:46;;;;;;;0.93;0.30;;;;;;;;;;10235480;28;20052;-93
2023/05/10 22:45:51;;;;;;;0.30;0.30;;;;;;;;;;10238131;28;20062;-92
2023/05/10 22:50:54;;;;;;;0.28;0.25;;;;;;;;;;10173112;28;20044;-90
2023/05/10 22:56:02;;;;;;;0.30;0.30;;;;;;;;;;10309658;28;20101;-92
2023/05/10 23:01:05;;;;;;;1.73;0.40;;;;;;;;;;10225385;28;20051;-90
2023/05/10 23:06:09;;;;;;;0.70;0.40;;;;;;;;;;10156868;28;20474;-91
2023/05/10 23:11:14;;;;;;;0.30;0.30;;;;;;;;;;10157950;28;20422;-89
2023/05/10 23:16:17;;;;;;;0.43;0.30;;;;;;;;;;10147259;28;20173;-92
2023/05/10 23:21:21;;;;;;;1.48;0.40;;;;;;;;;;10235254;28;20103;-90
2023/05/10 23:26:26;;;;;;;0.52;0.30;;;;;;;;;;10196430;28;20049;-90
2023/05/10 23:31:30;;;;;;;0.90;0.50;;;;;;;;;;10190767;28;20052;-90
2023/05/10 23:36:33;;;;;;;0.25;0.20;;;;;;;;;;10195941;28;20055;-90
2023/05/10 23:41:38;;;;;;;1.67;0.40;;;;;;;;;;10208497;28;20052;-92
2023/05/10 23:46:41;;;;;;;0.50;0.50;;;;;;;;;;10219120;28;20060;-89
2023/05/10 23:51:45;;;;;;;0.50;0.38;;;;;;;;;;10226657;28;20041;-89
2023/05/10 23:56:50;;;;;;;1.98;0.50;;;;;;;;;;10234790;28;20069;-89
